aviador You're here:

CYEG Decoded Metar

EDMONTON in AB, CANADA
Report Time2017-09-24 06:00:00
UTC Time2017-09-24 06:50:55
Flight Rules vfr VFR
Wind170° at 06 kt
W.Decomp.*RWY 12: 5.0 kt HW 3.3 kt RCW
RWY 20: 4.1 kt HW 4.4 kt LCW
W.Rank170° ranks 3
Current wind is below 170° avg. (7.0)
Visibility9999 m
Phenomena:N/A
Clouds:Few 060 Hf
Broken 084 Hf
Expected CloudBase > 800 ft AGL from Temp-Dew spread
Ceiling8,400 ft
Temp05°C (ISA -5)
Dew Point03°C (87% RH)
AAT1.3°C
QNH1017 hPa
Density Alt1,713 ft
Elevation2,372 ft
Report Wrong Elevation
Raw Report
CYEG 240600Z 17006KT 15SM FEW060 BKN084 05/03 A3004 RMK SC1AC7 SC
TR SLP193=

Extra information for CYEG:More info

Metar Taf Metar & Taf Last 4 Metars F.Rules Stats Wind Profile Meteogram Temp Stats Airport Information Weather charts Add Link Nearby VenuesMetar ALERT Operation Metar Decoded Social comments